Time;durP1;ratioP1;P1;durP2;ratioP2;P2;SDS_P1;SDS_P2;PMS_P1;PMS_P2;Temp;Humidity;BMP_temperature;BMP_pressure;BME280_temperature;BME280_humidity;BME280_pressure;Samples;Min_cycle;Max_cycle;Signal;HPM_P1;HPM_P2
2021/06/19 00:02:01;;;;;;;11.13;4.80;;;23.40;99.90;;;;;;5094210;28;20540;-69
2021/06/19 00:04:27;;;;;;;7.50;4.73;;;23.30;99.90;;;;;;5094046;28;20404;-69
2021/06/19 00:06:53;;;;;;;7.40;5.53;;;23.30;99.90;;;;;;5094238;28;20916;-69
2021/06/19 00:09:19;;;;;;;10.73;5.60;;;23.30;99.90;;;;;;5092823;28;20421;-69
2021/06/19 00:11:44;;;;;;;8.10;5.50;;;23.30;99.90;;;;;;5093910;28;20197;-69
2021/06/19 00:14:10;;;;;;;11.13;5.37;;;23.20;99.90;;;;;;5093774;28;20455;-69
2021/06/19 00:16:35;;;;;;;4.93;4.23;;;23.20;99.90;;;;;;5094115;28;20159;-69
2021/06/19 00:19:02;;;;;;;5.23;4.37;;;23.20;99.90;;;;;;5093727;28;20246;-69
2021/06/19 00:21:28;;;;;;;12.00;5.20;;;23.20;99.90;;;;;;5093648;28;20187;-69
2021/06/19 00:23:53;;;;;;;10.90;5.13;;;23.10;99.90;;;;;;5093646;28;20400;-69
2021/06/19 00:26:19;;;;;;;7.93;5.40;;;23.10;99.90;;;;;;5092706;28;20159;-69
2021/06/19 00:28:44;;;;;;;6.17;5.40;;;23.10;99.90;;;;;;5093811;28;20190;-69
2021/06/19 00:31:10;;;;;;;8.93;5.53;;;23.00;99.90;;;;;;5092757;28;20569;-69
2021/06/19 00:33:35;;;;;;;8.27;5.93;;;23.00;99.90;;;;;;5093388;28;20526;-69
2021/06/19 00:36:01;;;;;;;8.97;6.17;;;23.00;99.90;;;;;;5093457;28;20169;-69
2021/06/19 00:38:27;;;;;;;8.63;4.87;;;23.00;99.90;;;;;;5093369;28;20175;-69
2021/06/19 00:40:52;;;;;;;9.40;6.40;;;22.90;99.90;;;;;;5094657;28;20467;-69
2021/06/19 00:43:18;;;;;;;7.17;5.60;;;22.90;99.90;;;;;;5113716;28;20161;-69
2021/06/19 00:45:44;;;;;;;6.20;4.20;;;22.80;99.90;;;;;;5113812;28;20633;-69
2021/06/19 00:48:11;;;;;;;5.37;4.43;;;22.80;99.90;;;;;;5107360;28;20180;-69
2021/06/19 00:50:38;;;;;;;4.57;4.00;;;22.80;99.90;;;;;;5093206;28;20162;-69
2021/06/19 00:53:04;;;;;;;4.67;4.20;;;22.80;99.90;;;;;;5093438;28;20392;-69
2021/06/19 00:55:30;;;;;;;5.60;4.07;;;22.80;99.90;;;;;;5093189;28;20454;-69
2021/06/19 00:57:57;;;;;;;4.93;4.40;;;22.70;99.90;;;;;;5092968;28;20174;-69
2021/06/19 01:00:23;;;;;;;5.70;3.17;;;22.70;99.90;;;;;;5092979;28;20431;-69
2021/06/19 01:02:52;;;;;;;4.03;3.70;;;22.70;99.90;;;;;;5093062;28;20838;-69
2021/06/19 01:05:18;;;;;;;7.20;4.10;;;22.60;99.90;;;;;;5092173;28;20170;-69
2021/06/19 01:07:43;;;;;;;7.03;4.20;;;22.70;99.90;;;;;;5092939;28;20419;-69
2021/06/19 01:10:09;;;;;;;3.80;3.40;;;22.60;99.90;;;;;;5092994;28;20647;-69
2021/06/19 01:12:35;;;;;;;6.47;3.80;;;22.60;99.90;;;;;;5093384;28;20159;-69
2021/06/19 01:15:01;;;;;;;3.10;2.80;;;22.60;99.90;;;;;;5093058;28;20530;-69
2021/06/19 01:17:26;;;;;;;5.13;2.77;;;22.50;99.90;;;;;;5092862;28;20623;-69
2021/06/19 01:22:43;;;;;;;3.33;2.90;;;22.50;99.90;;;;;;5137145;27;20302;-69
2021/06/19 01:25:15;;;;;;;5.40;2.90;;;22.50;99.90;;;;;;5110334;28;20388;-69
2021/06/19 01:27:40;;;;;;;3.60;2.37;;;22.40;99.90;;;;;;5110352;28;20403;-69
2021/06/19 01:30:08;;;;;;;2.80;2.60;;;22.40;99.90;;;;;;5110359;28;20384;-69
2021/06/19 01:32:37;;;;;;;6.93;3.43;;;22.40;99.90;;;;;;5110019;28;20165;-69
2021/06/19 01:35:03;;;;;;;4.30;2.80;;;22.30;99.90;;;;;;5110099;28;20805;-69
2021/06/19 01:37:29;;;;;;;4.37;2.97;;;22.30;99.90;;;;;;5110054;28;20400;-69
2021/06/19 01:40:16;;;;;;;7.43;2.70;;;22.30;99.90;;;;;;5109918;28;20408;-69
2021/06/19 01:42:44;;;;;;;6.63;2.50;;;22.30;99.90;;;;;;5109100;28;20253;-69
2021/06/19 01:45:29;;;;;;;2.60;2.40;;;22.30;99.90;;;;;;5110118;28;20904;-69
2021/06/19 01:47:59;;;;;;;3.90;2.33;;;22.30;99.90;;;;;;5109803;28;20393;-69
2021/06/19 01:50:25;;;;;;;2.97;2.53;;;22.20;99.90;;;;;;5109713;28;20387;-69
2021/06/19 01:52:52;;;;;;;3.30;2.23;;;22.20;99.90;;;;;;5109837;28;20395;-69
2021/06/19 01:55:18;;;;;;;3.57;3.10;;;22.20;99.90;;;;;;5109890;28;20877;-69
2021/06/19 01:57:44;;;;;;;4.27;2.53;;;22.20;99.90;;;;;;5109551;28;20407;-69
2021/06/19 02:02:45;;;;;;;2.37;1.80;;;22.20;99.90;;;;;;5146744;27;20285;-69
2021/06/19 02:05:13;;;;;;;2.43;2.20;;;22.10;99.90;;;;;;5131389;28;20717;-69
2021/06/19 02:07:57;;;;;;;4.30;2.67;;;22.10;99.90;;;;;;5130921;28;20399;-71
2021/06/19 02:10:27;;;;;;;2.13;1.57;;;22.10;99.90;;;;;;5130679;28;20384;-71
2021/06/19 02:12:53;;;;;;;1.90;1.50;;;22.00;99.90;;;;;;5128172;28;20395;-71
2021/06/19 02:15:19;;;;;;;2.97;1.87;;;22.00;99.90;;;;;;5110084;28;20889;-71
2021/06/19 02:17:45;;;;;;;4.70;2.07;;;22.00;99.90;;;;;;5110145;28;20434;-71
2021/06/19 02:20:13;;;;;;;3.50;1.80;;;22.00;99.90;;;;;;5109991;28;20803;-71
2021/06/19 02:22:39;;;;;;;1.90;1.60;;;22.00;99.90;;;;;;5109877;28;20538;-71
2021/06/19 02:25:07;;;;;;;2.20;1.30;;;22.00;99.90;;;;;;5109909;28;20388;-71
2021/06/19 02:27:32;;;;;;;2.40;1.70;;;21.90;99.90;;;;;;5110031;28;20388;-71
2021/06/19 02:29:58;;;;;;;1.70;1.57;;;21.90;99.90;;;;;;5110398;28;20787;-71
2021/06/19 02:32:24;;;;;;;1.60;1.50;;;21.90;99.90;;;;;;5109709;28;20162;-71
2021/06/19 02:34:50;;;;;;;4.60;1.80;;;21.90;99.90;;;;;;5109647;28;20487;-71
2021/06/19 02:37:16;;;;;;;7.33;2.07;;;21.80;99.90;;;;;;5109661;28;20532;-71
2021/06/19 02:39:42;;;;;;;2.90;1.93;;;21.80;99.90;;;;;;5128159;28;20415;-71
2021/06/19 02:42:08;;;;;;;2.33;2.10;;;21.80;99.90;;;;;;5130725;28;20182;-71
2021/06/19 02:44:33;;;;;;;2.70;1.77;;;21.80;99.90;;;;;;5130025;28;20239;-71
2021/06/19 02:46:59;;;;;;;1.60;1.50;;;21.80;99.90;;;;;;5129107;28;20926;-71
2021/06/19 02:49:24;;;;;;;3.30;1.90;;;21.70;99.90;;;;;;5129810;28;20150;-71
2021/06/19 02:51:50;;;;;;;2.33;1.77;;;21.70;99.90;;;;;;5129798;28;20264;-71
2021/06/19 02:54:15;;;;;;;2.50;1.87;;;21.60;99.90;;;;;;5129831;28;20188;-71
2021/06/19 02:56:41;;;;;;;2.20;1.90;;;21.70;99.90;;;;;;5129913;28;20257;-71
2021/06/19 02:59:06;;;;;;;3.40;2.30;;;21.60;99.90;;;;;;5129535;28;20573;-71
2021/06/19 03:01:32;;;;;;;2.00;1.70;;;21.60;99.90;;;;;;5129590;28;20571;-71
2021/06/19 03:03:58;;;;;;;2.47;2.20;;;21.60;99.90;;;;;;5128904;28;20169;-71
2021/06/19 03:06:23;;;;;;;2.00;1.80;;;21.50;99.90;;;;;;5129601;28;20162;-71
2021/06/19 03:08:49;;;;;;;1.73;1.50;;;21.50;99.90;;;;;;5129594;28;20146;-71
2021/06/19 03:11:14;;;;;;;3.13;1.83;;;21.50;99.90;;;;;;5129773;28;20251;-71
2021/06/19 03:13:40;;;;;;;3.70;2.33;;;21.50;99.90;;;;;;5118450;28;20158;-71
2021/06/19 03:16:05;;;;;;;2.80;2.17;;;21.40;99.90;;;;;;5115744;28;20568;-71
2021/06/19 03:18:31;;;;;;;2.30;2.07;;;21.40;99.90;;;;;;5115660;28;20161;-71
2021/06/19 03:20:56;;;;;;;2.33;1.80;;;21.40;99.90;;;;;;5114586;28;20194;-71
2021/06/19 03:23:22;;;;;;;4.60;1.80;;;21.40;99.90;;;;;;5115436;28;20150;-71
2021/06/19 03:25:47;;;;;;;3.00;1.40;;;21.40;99.90;;;;;;5115898;28;20511;-71
2021/06/19 03:28:14;;;;;;;2.07;1.97;;;21.40;99.90;;;;;;5115573;28;20506;-71
2021/06/19 03:30:42;;;;;;;1.80;1.47;;;21.30;99.90;;;;;;5115502;28;20161;-72
2021/06/19 03:33:10;;;;;;;1.80;1.70;;;21.30;99.90;;;;;;5115371;28;20428;-71
2021/06/19 03:35:36;;;;;;;2.17;1.90;;;21.30;99.90;;;;;;5115281;28;20401;-71
2021/06/19 03:38:02;;;;;;;2.17;1.53;;;21.30;99.90;;;;;;5110838;28;20792;-71
2021/06/19 03:40:29;;;;;;;2.90;1.53;;;21.30;99.90;;;;;;5095188;28;20404;-71
2021/06/19 03:42:55;;;;;;;1.50;1.40;;;21.30;99.90;;;;;;5113505;28;20932;-71
2021/06/19 03:45:25;;;;;;;3.40;1.70;;;21.30;99.90;;;;;;5115108;28;20483;-71
2021/06/19 03:47:53;;;;;;;2.27;1.80;;;21.20;99.90;;;;;;5115099;28;20404;-71
2021/06/19 03:50:20;;;;;;;3.63;1.70;;;21.20;99.90;;;;;;5114886;28;20780;-71
2021/06/19 03:52:46;;;;;;;1.60;1.50;;;21.20;99.90;;;;;;5115116;28;20392;-71
2021/06/19 03:55:12;;;;;;;2.10;1.67;;;21.20;99.90;;;;;;5114323;28;20403;-71
2021/06/19 03:57:38;;;;;;;2.30;1.60;;;21.20;99.90;;;;;;5114979;28;20173;-71
2021/06/19 04:00:07;;;;;;;2.90;1.90;;;21.20;99.90;;;;;;5114822;28;20416;-71
2021/06/19 04:02:33;;;;;;;3.07;1.60;;;21.20;99.90;;;;;;5114590;28;20297;-71
2021/06/19 04:04:58;;;;;;;1.50;1.40;;;21.10;99.90;;;;;;5114665;28;20959;-71
2021/06/19 04:07:24;;;;;;;2.80;1.93;;;21.10;99.90;;;;;;5114828;28;20241;-71
2021/06/19 04:09:52;;;;;;;3.27;1.80;;;21.10;99.90;;;;;;5114652;28;20234;-71
2021/06/19 04:12:21;;;;;;;1.40;1.30;;;21.10;99.90;;;;;;5113891;28;20177;-71
2021/06/19 04:14:47;;;;;;;2.17;1.80;;;21.10;99.90;;;;;;5114773;28;20399;-71
2021/06/19 04:17:13;;;;;;;3.17;1.30;;;21.10;99.90;;;;;;5114625;28;20431;-71
2021/06/19 04:19:42;;;;;;;2.30;1.77;;;21.10;99.90;;;;;;5114538;28;20420;-71
2021/06/19 04:22:08;;;;;;;1.60;1.50;;;21.00;99.90;;;;;;5114520;28;20447;-71
2021/06/19 04:24:34;;;;;;;3.13;2.03;;;21.00;99.90;;;;;;5113602;28;20897;-71
2021/06/19 04:27:01;;;;;;;2.53;1.63;;;21.00;99.90;;;;;;5114422;28;20399;-71
2021/06/19 04:29:28;;;;;;;2.50;1.73;;;21.00;99.90;;;;;;5113571;28;20415;-71
2021/06/19 04:31:55;;;;;;;2.10;1.80;;;21.00;99.90;;;;;;5114373;28;20396;-71
2021/06/19 04:34:21;;;;;;;2.63;2.00;;;21.00;99.90;;;;;;5114265;28;20918;-71
2021/06/19 04:36:47;;;;;;;2.60;2.17;;;21.00;99.90;;;;;;5114346;28;20397;-71
2021/06/19 04:39:13;;;;;;;2.60;2.40;;;21.00;99.90;;;;;;5114294;28;20499;-71
2021/06/19 04:41:59;;;;;;;2.40;2.20;;;21.00;99.90;;;;;;5114009;28;20201;-71
2021/06/19 04:47:00;;;;;;;2.40;1.80;;;21.00;99.90;;;;;;5134130;27;20389;-71
2021/06/19 04:49:29;;;;;;;1.83;1.73;;;21.00;99.90;;;;;;5110374;28;20396;-71
2021/06/19 04:51:54;;;;;;;1.50;1.40;;;21.00;99.90;;;;;;5110801;28;20160;-71
2021/06/19 04:54:20;;;;;;;5.03;1.90;;;21.00;99.90;;;;;;5110335;28;20467;-71
2021/06/19 04:56:46;;;;;;;3.33;1.70;;;21.00;99.90;;;;;;5110334;28;20170;-71
2021/06/19 04:59:11;;;;;;;1.77;1.67;;;21.00;99.90;;;;;;5110008;28;20198;-71
2021/06/19 05:01:37;;;;;;;2.30;1.53;;;21.10;99.90;;;;;;5109914;28;20491;-71
2021/06/19 05:04:03;;;;;;;2.07;1.50;;;21.10;99.90;;;;;;5109939;28;20182;-71
2021/06/19 05:06:29;;;;;;;2.50;1.67;;;21.20;99.90;;;;;;5110370;28;20236;-71
2021/06/19 05:08:55;;;;;;;1.20;1.03;;;21.20;99.90;;;;;;5110365;28;20166;-71
2021/06/19 05:11:20;;;;;;;1.50;1.40;;;21.20;99.90;;;;;;5109926;28;20163;-71
2021/06/19 05:13:46;;;;;;;5.90;1.67;;;21.20;99.90;;;;;;5109986;28;20403;-71
2021/06/19 05:16:13;;;;;;;1.27;1.17;;;21.30;99.90;;;;;;5109700;28;20162;-71
2021/06/19 05:18:39;;;;;;;1.70;1.43;;;21.30;99.90;;;;;;5109858;28;20263;-71
2021/06/19 05:21:04;;;;;;;1.50;1.40;;;21.30;99.90;;;;;;5110058;28;20424;-71
2021/06/19 05:23:30;;;;;;;2.93;1.93;;;21.40;99.90;;;;;;5109767;28;20166;-71
2021/06/19 05:25:55;;;;;;;5.67;1.60;;;21.40;99.90;;;;;;5109695;28;20224;-71
2021/06/19 05:28:22;;;;;;;2.40;1.43;;;21.40;99.90;;;;;;5109982;28;20163;-71
2021/06/19 05:30:48;;;;;;;1.70;1.60;;;21.40;99.90;;;;;;5109471;28;20186;-71
2021/06/19 05:33:14;;;;;;;1.53;1.43;;;21.50;99.90;;;;;;5109525;28;20461;-71
2021/06/19 05:35:40;;;;;;;1.20;1.10;;;21.50;99.90;;;;;;5110225;28;20412;-71
2021/06/19 05:38:06;;;;;;;3.20;1.70;;;21.60;99.90;;;;;;5109589;28;20538;-71
2021/06/19 05:40:32;;;;;;;4.50;1.70;;;21.60;99.90;;;;;;5109433;28;20165;-71
2021/06/19 05:42:57;;;;;;;2.10;1.83;;;21.60;99.90;;;;;;5109279;28;20415;-71
2021/06/19 05:45:23;;;;;;;1.97;1.77;;;21.70;99.90;;;;;;5109010;28;20267;-71
2021/06/19 05:47:49;;;;;;;3.17;1.73;;;21.70;99.90;;;;;;5109451;28;20169;-71
2021/06/19 05:50:14;;;;;;;2.43;1.57;;;21.80;99.90;;;;;;5109527;28;20178;-71
2021/06/19 05:52:41;;;;;;;1.80;1.70;;;21.80;99.90;;;;;;5109200;28;20170;-71
2021/06/19 05:55:08;;;;;;;2.93;2.13;;;21.90;99.90;;;;;;5108934;28;20181;-71
2021/06/19 05:57:34;;;;;;;2.27;1.63;;;21.90;99.90;;;;;;5100138;28;20779;-71
2021/06/19 05:59:59;;;;;;;3.10;2.30;;;22.00;99.90;;;;;;5095585;28;20436;-71
2021/06/19 06:02:25;;;;;;;5.47;2.17;;;22.00;99.90;;;;;;5095889;28;20233;-71
2021/06/19 06:04:50;;;;;;;2.23;1.67;;;22.10;99.90;;;;;;5095680;28;20170;-71
2021/06/19 06:07:16;;;;;;;3.20;1.80;;;22.10;99.90;;;;;;5095388;28;20151;-71
2021/06/19 06:09:42;;;;;;;2.50;2.30;;;22.20;99.90;;;;;;5095621;28;20240;-71
2021/06/19 06:12:08;;;;;;;3.43;2.50;;;22.20;99.90;;;;;;5095321;28;20623;-71
2021/06/19 06:14:34;;;;;;;3.97;2.10;;;22.30;99.90;;;;;;5095449;28;20167;-71
2021/06/19 06:17:00;;;;;;;2.10;1.90;;;22.30;99.90;;;;;;5095697;28;20409;-71
2021/06/19 06:19:26;;;;;;;2.13;1.10;;;22.40;99.90;;;;;;5095190;28;20477;-71
2021/06/19 06:21:51;;;;;;;1.37;1.27;;;22.50;99.90;;;;;;5094809;28;20532;-71
2021/06/19 06:24:17;;;;;;;2.03;1.73;;;22.50;99.90;;;;;;5095009;28;20159;-71
2021/06/19 06:26:44;;;;;;;1.50;1.40;;;22.60;99.90;;;;;;5094520;28;20554;-71
2021/06/19 06:29:10;;;;;;;2.67;2.47;;;22.70;99.90;;;;;;5094817;28;20536;-71
2021/06/19 06:31:35;;;;;;;1.90;1.23;;;22.80;99.90;;;;;;5095021;28;20549;-71
2021/06/19 06:34:01;;;;;;;2.33;2.13;;;22.80;99.90;;;;;;5094944;28;20262;-71
2021/06/19 06:36:27;;;;;;;2.70;1.30;;;22.90;99.90;;;;;;5094648;28;20163;-71
2021/06/19 06:38:52;;;;;;;1.60;1.20;;;23.00;99.90;;;;;;5094739;28;20175;-71
2021/06/19 06:41:18;;;;;;;3.13;1.60;;;23.10;99.90;;;;;;5094528;28;20294;-71
2021/06/19 06:43:44;;;;;;;2.70;1.10;;;23.20;99.90;;;;;;5094701;28;20228;-71
2021/06/19 06:46:09;;;;;;;3.83;1.17;;;23.30;99.90;;;;;;5094289;28;20220;-71
2021/06/19 06:48:35;;;;;;;2.33;1.27;;;23.50;99.90;;;;;;5094534;28;20157;-71
2021/06/19 06:51:00;;;;;;;2.17;1.70;;;23.60;99.90;;;;;;5094597;28;20207;-71
2021/06/19 06:53:26;;;;;;;2.83;2.63;;;23.70;99.90;;;;;;5094298;28;20618;-71
2021/06/19 06:55:52;;;;;;;1.30;1.20;;;23.80;99.90;;;;;;5094373;28;20655;-71
2021/06/19 06:58:17;;;;;;;1.37;1.27;;;24.00;99.90;;;;;;5094271;28;20155;-71
2021/06/19 07:00:43;;;;;;;3.23;1.67;;;24.10;99.90;;;;;;5094664;28;20167;-71
2021/06/19 07:03:08;;;;;;;0.97;0.97;;;24.30;99.90;;;;;;5094258;28;20543;-71
2021/06/19 07:05:34;;;;;;;1.50;1.40;;;24.40;99.90;;;;;;5094192;28;20194;-71
2021/06/19 07:07:59;;;;;;;1.60;1.20;;;24.60;99.90;;;;;;5093894;28;20159;-71
2021/06/19 07:10:25;;;;;;;2.63;1.40;;;24.70;99.90;;;;;;5093472;28;20676;-71
2021/06/19 07:12:51;;;;;;;1.43;1.33;;;24.70;99.90;;;;;;5094496;28;20166;-71
2021/06/19 07:15:18;;;;;;;1.20;1.10;;;24.90;99.90;;;;;;5094394;28;20255;-72
2021/06/19 07:17:47;;;;;;;1.80;1.57;;;25.00;99.90;;;;;;5093952;28;20159;-71
2021/06/19 07:20:14;;;;;;;2.30;1.10;;;25.10;99.90;;;;;;5093640;28;20427;-71
2021/06/19 07:22:40;;;;;;;1.33;1.17;;;25.10;99.90;;;;;;5093889;28;20389;-71
2021/06/19 07:25:07;;;;;;;2.10;1.20;;;25.30;99.90;;;;;;5093777;28;20532;-72
2021/06/19 07:27:33;;;;;;;1.33;1.23;;;25.80;99.90;;;;;;5093865;28;20395;-72
2021/06/19 07:29:59;;;;;;;2.10;1.07;;;26.60;99.90;;;;;;5094024;28;20393;-72
2021/06/19 07:32:25;;;;;;;4.73;1.53;;;27.70;98.10;;;;;;5093648;28;20638;-72
2021/06/19 07:34:50;;;;;;;1.20;1.10;;;28.90;95.30;;;;;;5093595;28;20397;-72
2021/06/19 07:37:17;;;;;;;1.27;1.17;;;29.90;92.80;;;;;;5093454;28;20167;-72
2021/06/19 07:39:42;;;;;;;2.40;1.53;;;30.90;87.80;;;;;;5093586;28;20303;-70
2021/06/19 07:42:11;;;;;;;1.43;1.33;;;32.00;82.60;;;;;;5093533;28;20430;-71
2021/06/19 07:44:36;;;;;;;1.53;1.43;;;33.30;72.40;;;;;;5093280;28;20159;-71
2021/06/19 07:47:02;;;;;;;1.17;1.00;;;34.50;63.90;;;;;;5093310;28;20624;-71
2021/06/19 07:49:28;;;;;;;2.43;1.30;;;35.30;58.20;;;;;;5093343;28;20238;-71
2021/06/19 07:51:54;;;;;;;2.10;0.90;;;35.90;55.30;;;;;;5093511;28;20166;-71
2021/06/19 07:54:20;;;;;;;1.13;0.80;;;36.70;50.20;;;;;;5093196;28;20409;-72
2021/06/19 07:56:47;;;;;;;1.17;0.77;;;37.30;47.20;;;;;;5093946;28;20675;-71
2021/06/19 07:59:13;;;;;;;0.90;0.90;;;38.00;45.50;;;;;;5093452;28;20209;-71
2021/06/19 08:01:39;;;;;;;1.13;1.03;;;38.60;43.80;;;;;;5093275;28;20392;-71
2021/06/19 08:04:05;;;;;;;1.10;0.93;;;39.30;40.90;;;;;;5093221;28;20749;-71
2021/06/19 08:06:31;;;;;;;0.93;0.87;;;39.60;39.00;;;;;;5093087;28;20182;-71
2021/06/19 08:08:56;;;;;;;1.17;1.00;;;40.00;38.60;;;;;;5093838;28;20209;-71
2021/06/19 08:11:22;;;;;;;0.87;0.87;;;40.40;37.20;;;;;;5093025;28;20174;-71
2021/06/19 08:13:49;;;;;;;3.23;1.00;;;40.70;36.70;;;;;;5092978;28;20521;-71
2021/06/19 08:16:17;;;;;;;0.80;0.80;;;40.80;36.30;;;;;;5092998;28;20488;-71
2021/06/19 08:18:44;;;;;;;1.90;1.00;;;41.30;35.10;;;;;;5092559;28;20395;-71
2021/06/19 08:21:10;;;;;;;1.27;1.17;;;41.90;34.50;;;;;;5092567;28;20439;-71
2021/06/19 08:23:35;;;;;;;2.43;1.60;;;42.50;33.30;;;;;;5094015;28;20881;-71
2021/06/19 08:26:01;;;;;;;2.47;1.10;;;43.00;32.80;;;;;;5093064;28;20218;-71
2021/06/19 08:28:27;;;;;;;0.82;0.82;;;43.70;31.40;;;;;;5092538;28;20209;-71
2021/06/19 08:30:52;;;;;;;1.10;1.00;;;44.40;30.50;;;;;;5092832;28;20166;-71
2021/06/19 08:33:18;;;;;;;0.73;0.70;;;45.00;29.70;;;;;;5092644;28;20278;-72
2021/06/19 08:35:43;;;;;;;2.55;1.30;;;45.20;29.20;;;;;;5092606;28;20154;-72
2021/06/19 08:38:09;;;;;;;1.52;0.70;;;45.80;28.70;;;;;;5093129;28;20185;-71
2021/06/19 08:40:37;;;;;;;2.05;0.90;;;46.30;27.90;;;;;;5092789;28;20164;-72
2021/06/19 08:43:03;;;;;;;2.63;1.17;;;46.70;26.90;;;;;;5092468;28;20198;-72
2021/06/19 08:45:31;;;;;;;2.25;1.05;;;46.80;26.80;;;;;;5092286;28;20674;-72
2021/06/19 08:48:00;;;;;;;0.90;0.90;;;46.70;26.70;;;;;;5092387;28;20580;-72
2021/06/19 08:50:26;;;;;;;0.70;0.70;;;46.90;26.20;;;;;;5092399;28;20166;-72
2021/06/19 08:52:51;;;;;;;2.00;0.90;;;46.90;26.50;;;;;;5092468;28;20188;-71
2021/06/19 08:55:18;;;;;;;1.40;1.30;;;46.80;26.40;;;;;;5092488;28;20200;-72
2021/06/19 08:57:44;;;;;;;1.40;1.00;;;46.80;26.10;;;;;;5092464;28;20159;-72
2021/06/19 09:00:12;;;;;;;4.53;0.90;;;46.70;26.70;;;;;;5092439;28;20182;-71
2021/06/19 09:02:38;;;;;;;1.00;0.90;;;46.90;26.40;;;;;;5092243;28;20197;-72
2021/06/19 09:05:08;;;;;;;1.00;0.70;;;47.20;25.70;;;;;;5092456;28;20640;-71
2021/06/19 09:07:52;;;;;;;1.15;1.05;;;47.40;25.70;;;;;;5092457;28;20652;-71
2021/06/19 09:13:21;;;;;;;2.45;0.85;;;47.70;24.80;;;;;;5146972;27;20309;-71
2021/06/19 09:15:54;;;;;;;0.60;0.60;;;47.80;24.00;;;;;;5130892;27;20162;-71
2021/06/19 09:18:28;;;;;;;2.13;0.75;;;48.00;23.80;;;;;;5124494;28;20181;-70
2021/06/19 09:23:37;;;;;;;0.80;0.70;;;47.50;24.40;;;;;;5147085;27;20285;-71
2021/06/19 09:26:09;;;;;;;3.05;1.20;;;47.40;24.30;;;;;;5130869;28;20241;-71
2021/06/19 09:31:50;;;;;;;6.15;1.48;;;46.50;24.90;;;;;;5146939;27;20292;-73
2021/06/19 09:34:19;;;;;;;0.80;0.80;;;46.10;25.70;;;;;;5129951;28;20537;-73
2021/06/19 09:36:51;;;;;;;1.23;0.90;;;45.50;25.80;;;;;;5112368;28;20254;-73
2021/06/19 09:39:20;;;;;;;1.10;1.00;;;45.00;26.90;;;;;;5125740;28;20184;-73
2021/06/19 09:41:49;;;;;;;1.92;1.10;;;44.60;26.80;;;;;;5130454;28;20177;-73
2021/06/19 09:44:15;;;;;;;2.13;2.03;;;44.20;27.50;;;;;;5130290;28;20218;-73
2021/06/19 09:46:41;;;;;;;2.33;2.17;;;43.90;27.50;;;;;;5130586;28;20637;-73
2021/06/19 09:49:12;;;;;;;5.13;1.60;;;43.50;28.20;;;;;;5130518;28;20166;-73
2021/06/19 09:51:45;;;;;;;1.88;0.90;;;43.20;28.60;;;;;;5129763;28;20164;-73
2021/06/19 09:54:11;;;;;;;3.15;0.95;;;42.80;28.40;;;;;;5130772;28;20165;-73
2021/06/19 09:56:59;;;;;;;1.67;0.90;;;42.20;28.70;;;;;;5130392;28;20165;-73
2021/06/19 09:59:28;;;;;;;1.63;0.90;;;41.70;29.20;;;;;;5128909;28;20280;-73
2021/06/19 10:01:55;;;;;;;2.05;0.90;;;41.30;29.90;;;;;;5130406;28;20567;-72
2021/06/19 10:04:24;;;;;;;1.48;1.00;;;40.90;29.90;;;;;;5130228;28;20160;-72
2021/06/19 10:06:51;;;;;;;1.60;1.38;;;40.60;30.20;;;;;;5130393;28;20161;-72
2021/06/19 10:09:17;;;;;;;1.73;1.17;;;40.10;30.90;;;;;;5129216;28;20173;-72
2021/06/19 10:11:46;;;;;;;1.37;1.27;;;39.70;32.50;;;;;;5129972;28;20270;-72
2021/06/19 10:14:17;;;;;;;1.17;1.07;;;39.40;33.30;;;;;;5130453;28;20157;-72
2021/06/19 10:16:45;;;;;;;2.50;1.30;;;39.30;32.70;;;;;;5130094;28;20455;-72
2021/06/19 10:19:11;;;;;;;1.60;1.07;;;38.80;32.70;;;;;;5129950;28;20422;-72
2021/06/19 10:21:37;;;;;;;1.43;1.00;;;38.40;33.60;;;;;;5130217;28;20399;-72
2021/06/19 10:24:04;;;;;;;0.80;0.80;;;38.00;34.10;;;;;;5129983;28;20161;-72
2021/06/19 10:26:30;;;;;;;1.40;1.20;;;37.70;34.20;;;;;;5129006;28;20270;-72
2021/06/19 10:28:59;;;;;;;1.03;0.93;;;37.30;34.40;;;;;;5130157;28;21015;-72
2021/06/19 10:31:25;;;;;;;1.23;1.13;;;36.90;34.70;;;;;;5129588;28;20203;-72
2021/06/19 10:33:51;;;;;;;1.30;1.17;;;36.60;35.20;;;;;;5129425;28;20456;-72
2021/06/19 10:36:17;;;;;;;0.90;0.80;;;36.30;34.80;;;;;;5129930;28;20384;-72
2021/06/19 10:39:01;;;;;;;3.20;0.90;;;36.00;35.50;;;;;;5129659;28;20298;-72
2021/06/19 10:41:48;;;;;;;2.23;1.73;;;35.60;36.30;;;;;;5123891;28;20506;-71
2021/06/19 10:44:14;;;;;;;1.70;0.80;;;35.10;37.40;;;;;;5114001;28;20424;-71
2021/06/19 10:46:41;;;;;;;1.53;0.93;;;34.70;38.10;;;;;;5115792;28;20399;-71
2021/06/19 10:52:34;;;;;;;2.30;1.20;;;34.40;39.00;;;;;;5146806;27;20315;-71
2021/06/19 10:57:53;;;;;;;1.23;1.07;;;33.70;40.70;;;;;;5146959;27;20289;-72
2021/06/19 11:00:29;;;;;;;1.50;1.13;;;33.00;42.30;;;;;;5124244;28;20426;-72
2021/06/19 11:02:57;;;;;;;3.00;0.97;;;32.80;42.20;;;;;;5110395;28;20780;-72
2021/06/19 11:08:18;;;;;;;2.23;2.13;;;32.20;43.70;;;;;;5147006;27;20801;-72
2021/06/19 11:16:05;;;;;;;1.10;0.77;;;31.90;44.70;;;;;;5146872;27;20680;-71
2021/06/19 11:18:52;;;;;;;1.10;1.00;;;31.30;45.60;;;;;;5114197;28;20436;-71
2021/06/19 11:26:55;;;;;;;2.50;1.17;;;31.10;45.40;;;;;;5146674;27;20293;-72
2021/06/19 11:32:32;;;;;;;1.60;1.30;;;30.60;47.50;;;;;;5147028;27;20290;-72
2021/06/19 11:35:00;;;;;;;1.37;1.27;;;30.60;47.60;;;;;;5117326;28;20408;-72
2021/06/19 11:38:01;;;;;;;1.40;1.30;;;30.60;46.90;;;;;;5110396;28;20385;-71
2021/06/19 11:43:04;;;;;;;1.60;1.10;;;30.50;46.50;;;;;;5126019;27;20340;-71
2021/06/19 11:45:30;;;;;;;1.17;0.90;;;30.50;47.20;;;;;;5110165;28;20396;-71
2021/06/19 11:48:01;;;;;;;1.37;1.00;;;30.40;46.20;;;;;;5110401;28;20427;-71
2021/06/19 11:50:31;;;;;;;0.87;0.87;;;30.40;46.60;;;;;;5110247;28;20415;-71
2021/06/19 11:52:56;;;;;;;1.10;0.90;;;30.30;46.10;;;;;;5089286;28;20448;-71
2021/06/19 11:55:22;;;;;;;0.80;0.80;;;30.20;45.80;;;;;;5089650;28;20554;-71
2021/06/19 11:58:03;;;;;;;1.20;1.00;;;30.20;46.20;;;;;;5089837;28;20254;-71
2021/06/19 12:00:28;;;;;;;3.83;1.40;;;30.10;47.00;;;;;;5089531;28;20433;-71
2021/06/19 12:02:54;;;;;;;0.90;0.90;;;30.00;46.00;;;;;;5089509;28;20440;-71
2021/06/19 12:05:20;;;;;;;1.50;1.23;;;29.90;47.50;;;;;;5089427;28;20159;-71
2021/06/19 12:07:50;;;;;;;1.43;1.33;;;29.90;47.60;;;;;;5088625;28;20187;-71
2021/06/19 12:10:26;;;;;;;1.40;1.10;;;29.90;46.90;;;;;;5089220;28;20429;-71
2021/06/19 12:13:08;;;;;;;2.30;1.10;;;29.90;47.60;;;;;;5089646;28;20400;-71
2021/06/19 12:15:34;;;;;;;1.17;0.90;;;29.90;47.60;;;;;;5089530;28;20421;-71
2021/06/19 12:18:03;;;;;;;1.30;1.20;;;29.90;48.60;;;;;;5089050;28;20416;-71
2021/06/19 12:20:29;;;;;;;3.50;1.37;;;29.90;47.80;;;;;;5089231;28;20404;-71
2021/06/19 12:22:54;;;;;;;1.83;1.00;;;29.90;47.40;;;;;;5089068;28;20445;-71
2021/06/19 12:25:35;;;;;;;1.53;1.30;;;29.90;48.10;;;;;;5088627;28;20221;-71
2021/06/19 12:28:02;;;;;;;2.57;1.27;;;29.70;47.30;;;;;;5088965;28;20163;-71
2021/06/19 12:30:29;;;;;;;2.10;1.60;;;29.60;47.80;;;;;;5089335;28;20429;-71
2021/06/19 12:32:55;;;;;;;1.30;1.20;;;29.60;48.00;;;;;;5088966;28;20408;-71
2021/06/19 12:35:21;;;;;;;1.50;1.30;;;29.50;48.50;;;;;;5088907;28;20897;-71
2021/06/19 12:37:52;;;;;;;2.20;1.50;;;29.40;48.40;;;;;;5088760;28;20397;-71
2021/06/19 12:40:21;;;;;;;3.30;2.00;;;29.40;49.50;;;;;;5088965;28;20423;-71
2021/06/19 12:43:00;;;;;;;1.50;1.07;;;29.40;48.70;;;;;;5094777;28;20486;-71
2021/06/19 12:45:38;;;;;;;1.37;1.13;;;29.50;49.50;;;;;;5088814;28;20425;-71
2021/06/19 12:48:08;;;;;;;1.10;0.77;;;29.50;49.30;;;;;;5088876;28;20401;-71
2021/06/19 12:53:12;;;;;;;1.10;1.00;;;29.50;48.10;;;;;;5146706;27;20339;-72
2021/06/19 12:58:16;;;;;;;1.80;1.33;;;29.70;49.50;;;;;;5146765;27;20350;-72
2021/06/19 13:03:22;;;;;;;2.00;1.30;;;29.80;49.70;;;;;;5146787;27;20702;-72
2021/06/19 13:08:27;;;;;;;3.77;1.20;;;29.90;50.50;;;;;;5146963;27;20347;-72
2021/06/19 13:10:54;;;;;;;2.40;1.00;;;29.90;48.90;;;;;;5130752;28;20445;-72
2021/06/19 13:13:38;;;;;;;1.77;1.50;;;29.90;50.00;;;;;;5131195;28;20449;-72
2021/06/19 13:16:04;;;;;;;1.10;1.00;;;29.90;49.20;;;;;;5126354;28;20454;-71
2021/06/19 13:18:30;;;;;;;1.43;1.20;;;30.00;49.50;;;;;;5110225;28;20878;-71
2021/06/19 13:21:01;;;;;;;2.07;1.40;;;30.20;49.60;;;;;;5110177;28;20480;-72
2021/06/19 13:23:27;;;;;;;1.60;1.50;;;30.30;50.60;;;;;;5110241;28;20186;-72
2021/06/19 13:28:46;;;;;;;1.60;1.50;;;30.30;48.70;;;;;;5146878;27;20286;-71
2021/06/19 13:36:45;;;;;;;1.73;1.63;;;30.50;48.70;;;;;;5147061;27;20355;-71
2021/06/19 13:39:31;;;;;;;1.60;1.50;;;30.70;48.10;;;;;;5130597;28;20880;-71
2021/06/19 13:42:01;;;;;;;1.50;1.30;;;30.80;49.20;;;;;;5130677;27;20419;-72
2021/06/19 13:47:05;;;;;;;3.43;1.60;;;30.80;47.20;;;;;;5146679;27;20306;-71
2021/06/19 13:49:31;;;;;;;1.53;1.40;;;30.90;48.80;;;;;;5130707;28;20872;-70
2021/06/19 13:51:58;;;;;;;3.23;2.13;;;30.90;46.80;;;;;;5110933;28;20684;-71